Time;durP1;ratioP1;P1;durP2;ratioP2;P2;SDS_P1;SDS_P2;PMS_P1;PMS_P2;Temp;Humidity;BMP_temperature;BMP_pressure;BME280_temperature;BME280_humidity;BME280_pressure;Samples;Min_cycle;Max_cycle;Signal;HPM_P1;HPM_P2
2024/01/14 00:00:13;;;;;;;30.73;12.95;;;-3.10;99.90;;;-4.40;100.00;97338.94;4995037;28;20034;-35
2024/01/14 00:02:39;;;;;;;37.20;12.27;;;-3.20;99.90;;;-4.40;100.00;97336.38;4996228;28;20042;-35
2024/01/14 00:05:08;;;;;;;36.17;12.65;;;-3.20;99.90;;;-4.43;100.00;97341.47;4994714;28;20534;-35
2024/01/14 00:07:36;;;;;;;32.42;11.65;;;-3.20;99.90;;;-4.43;100.00;97332.03;4992116;28;20030;-35
2024/01/14 00:10:03;;;;;;;35.72;12.85;;;-3.20;99.90;;;-4.45;100.00;97325.09;4985161;28;20472;-36
2024/01/14 00:12:29;;;;;;;37.95;12.68;;;-3.20;99.90;;;-4.46;100.00;97319.09;5004186;28;20056;-36
2024/01/14 00:14:55;;;;;;;38.45;13.10;;;-3.20;99.90;;;-4.53;100.00;97312.09;4987055;28;20395;-36
2024/01/14 00:17:21;;;;;;;34.45;12.57;;;-3.20;99.90;;;-4.58;100.00;97294.81;4994942;28;20030;-36
2024/01/14 00:19:47;;;;;;;34.22;12.70;;;-3.20;99.90;;;-4.51;100.00;97312.97;4994263;28;20064;-36
2024/01/14 00:22:13;;;;;;;34.75;11.82;;;-3.20;99.90;;;-4.53;100.00;97314.66;4998690;28;20069;-35
2024/01/14 00:24:38;;;;;;;34.17;12.98;;;-3.30;99.90;;;-4.56;100.00;97306.88;4994041;28;20510;-36
2024/01/14 00:27:04;;;;;;;31.80;11.38;;;-3.30;99.90;;;-4.52;100.00;97300.97;4999316;28;20029;-36
2024/01/14 00:29:30;;;;;;;39.33;12.98;;;-3.20;99.90;;;-4.46;100.00;97303.66;4994475;28;21241;-36
2024/01/14 00:31:58;;;;;;;36.95;12.70;;;-3.20;99.90;;;-4.48;100.00;97297.59;4994313;28;20022;-35
2024/01/14 00:34:24;;;;;;;34.83;12.13;;;-3.20;99.90;;;-4.42;100.00;97304.59;4998282;28;20037;-35
2024/01/14 00:36:50;;;;;;;35.60;12.10;;;-3.20;99.90;;;-4.38;100.00;97300.38;4988812;28;20029;-35
2024/01/14 00:39:16;;;;;;;39.45;12.48;;;-3.20;99.90;;;-4.43;100.00;97285.69;4997366;28;20441;-35
2024/01/14 00:41:42;;;;;;;40.28;12.88;;;-3.20;99.90;;;-4.33;100.00;97291.88;4994203;28;21592;-35
2024/01/14 00:44:07;;;;;;;35.85;12.23;;;-3.10;99.90;;;-4.30;100.00;97279.09;4994078;28;20042;-35
2024/01/14 00:46:34;;;;;;;35.67;12.93;;;-3.10;99.90;;;-4.31;100.00;97279.06;4998039;28;20026;-35
2024/01/14 00:49:00;;;;;;;36.65;13.32;;;-3.10;99.90;;;-4.36;100.00;97278.97;4996241;28;20112;-35
2024/01/14 00:51:25;;;;;;;38.67;13.45;;;-3.10;99.90;;;-4.37;100.00;97273.78;5000348;28;20075;-37
2024/01/14 00:53:51;;;;;;;36.15;12.82;;;-3.10;99.90;;;-4.34;100.00;97267.00;5001521;28;20049;-35
2024/01/14 00:56:17;;;;;;;37.80;12.50;;;-3.10;99.90;;;-4.42;100.00;97243.66;5001596;28;20087;-35
2024/01/14 00:58:43;;;;;;;37.33;12.68;;;-3.10;99.90;;;-4.34;100.00;97251.56;4999268;28;20092;-35
2024/01/14 01:01:09;;;;;;;34.67;12.65;;;-3.10;99.90;;;-4.32;100.00;97241.28;4993966;28;20030;-35
2024/01/14 01:03:34;;;;;;;38.60;12.65;;;-3.10;99.90;;;-4.35;100.00;97242.06;4999129;28;20041;-34
2024/01/14 01:06:00;;;;;;;34.80;12.60;;;-3.10;99.90;;;-4.34;100.00;97230.97;5001486;28;20037;-34
2024/01/14 01:08:26;;;;;;;35.78;11.77;;;-3.10;99.90;;;-4.30;100.00;97232.75;4997464;28;20057;-34
2024/01/14 01:10:52;;;;;;;38.38;13.57;;;-3.10;99.90;;;-4.32;100.00;97231.84;4996762;28;20061;-34
2024/01/14 01:13:18;;;;;;;34.95;12.85;;;-3.10;99.90;;;-4.32;100.00;97229.28;5002430;28;20026;-34
2024/01/14 01:15:44;;;;;;;37.22;13.27;;;-3.10;99.90;;;-4.31;100.00;97227.56;4995760;28;20812;-35
2024/01/14 01:18:09;;;;;;;37.03;12.40;;;-3.10;99.90;;;-4.33;100.00;97234.38;5001518;28;20026;-36
2024/01/14 01:20:35;;;;;;;33.05;13.00;;;-3.10;99.90;;;-4.33;100.00;97226.66;4987385;28;20072;-35
2024/01/14 01:23:01;;;;;;;35.47;12.05;;;-3.10;99.90;;;-4.33;100.00;97224.09;4993934;28;20759;-35
2024/01/14 01:25:27;;;;;;;37.67;12.73;;;-3.10;99.90;;;-4.29;100.00;97216.47;4997684;28;20069;-35
2024/01/14 01:27:52;;;;;;;33.53;11.57;;;-3.10;99.90;;;-4.26;100.00;97213.91;4996918;28;20394;-34
2024/01/14 01:30:18;;;;;;;38.67;12.52;;;-3.00;99.90;;;-4.26;100.00;97215.63;4998636;28;20030;-34
2024/01/14 01:32:44;;;;;;;38.05;13.23;;;-3.00;99.90;;;-4.33;100.00;97216.38;4999301;28;20030;-34
2024/01/14 01:35:09;;;;;;;35.72;13.55;;;-3.10;99.90;;;-4.29;100.00;97210.41;4996244;28;20271;-35
2024/01/14 01:37:35;;;;;;;36.53;12.77;;;-3.10;99.90;;;-4.29;100.00;97206.16;4998925;28;20029;-35
2024/01/14 01:40:02;;;;;;;40.30;14.30;;;-3.10;99.90;;;-4.30;100.00;97200.97;4993621;28;20057;-35
2024/01/14 01:42:28;;;;;;;34.47;13.20;;;-3.00;99.90;;;-4.31;100.00;97186.34;4998315;28;20033;-35
2024/01/14 01:44:53;;;;;;;38.97;13.98;;;-3.10;99.90;;;-4.31;100.00;97191.50;4995200;28;22011;-35
2024/01/14 01:47:20;;;;;;;37.60;12.52;;;-3.10;99.90;;;-4.29;100.00;97190.72;4994923;28;20479;-35
2024/01/14 01:49:46;;;;;;;40.63;13.18;;;-3.10;99.90;;;-4.34;100.00;97182.03;4997853;28;20623;-36
2024/01/14 01:52:12;;;;;;;36.03;13.35;;;-3.10;99.90;;;-4.29;100.00;97197.53;4994656;28;20045;-35
2024/01/14 01:54:39;;;;;;;32.72;12.18;;;-3.10;99.90;;;-4.24;100.00;97190.78;5000851;28;20071;-36
2024/01/14 01:57:06;;;;;;;37.33;12.45;;;-3.00;99.90;;;-4.17;100.00;97184.91;4997692;28;20603;-36
2024/01/14 01:59:33;;;;;;;36.08;12.80;;;-3.00;99.90;;;-4.19;100.00;97183.16;4996881;28;20026;-35
2024/01/14 02:02:00;;;;;;;39.03;13.13;;;-3.00;99.90;;;-4.17;100.00;97172.03;4993755;28;20029;-35
2024/01/14 02:04:26;;;;;;;45.42;15.18;;;-3.00;99.90;;;-4.24;100.00;97168.47;4997471;28;20021;-35
2024/01/14 02:06:52;;;;;;;42.08;14.02;;;-3.00;99.90;;;-4.34;100.00;97156.28;4995471;28;20052;-35
2024/01/14 02:09:18;;;;;;;47.38;16.33;;;-3.00;99.90;;;-4.47;100.00;97152.63;4997837;28;20436;-35
2024/01/14 02:11:44;;;;;;;44.15;14.30;;;-3.10;99.90;;;-4.41;100.00;97159.59;4996217;28;20470;-36
2024/01/14 02:14:10;;;;;;;49.22;15.77;;;-3.10;99.90;;;-4.44;100.00;97164.69;4998373;28;20052;-35
2024/01/14 02:16:36;;;;;;;42.08;14.45;;;-3.20;99.90;;;-4.43;100.00;97154.41;4996358;28;20095;-35
2024/01/14 02:19:01;;;;;;;46.08;14.50;;;-3.20;99.90;;;-4.43;100.00;97146.69;4997582;28;20557;-35
2024/01/14 02:21:41;;;;;;;41.03;14.60;;;-3.20;99.90;;;-4.32;100.00;97156.31;4997014;28;20074;-35
2024/01/14 02:24:26;;;;;;;45.65;13.93;;;-3.10;99.90;;;-4.40;100.00;97145.88;4993942;28;20065;-35
2024/01/14 02:26:52;;;;;;;44.20;14.43;;;-3.10;99.90;;;-4.35;100.00;97151.09;4993632;28;20133;-35
2024/01/14 02:29:19;;;;;;;44.85;15.27;;;-3.10;99.90;;;-4.31;100.00;97135.72;5000409;28;20064;-35
2024/01/14 02:31:45;;;;;;;45.13;14.32;;;-3.10;99.90;;;-4.39;100.00;97136.47;4994363;28;20041;-35
2024/01/14 02:34:12;;;;;;;39.05;14.57;;;-3.10;99.90;;;-4.38;100.00;97145.91;4995260;28;20155;-35
2024/01/14 02:36:38;;;;;;;41.70;13.95;;;-3.10;99.90;;;-4.30;100.00;97134.03;4991252;28;20104;-35
2024/01/14 02:39:07;;;;;;;42.38;15.25;;;-3.10;99.90;;;-4.21;100.00;97141.91;4991582;28;20038;-35
2024/01/14 02:41:33;;;;;;;42.42;14.82;;;-3.10;99.90;;;-4.50;100.00;97121.69;4996572;28;20108;-35
2024/01/14 02:43:59;;;;;;;43.00;14.73;;;-3.10;99.90;;;-4.42;100.00;97127.81;4998002;28;20490;-35
2024/01/14 02:46:24;;;;;;;40.13;14.20;;;-3.20;99.90;;;-4.38;100.00;97133.03;4995342;28;20080;-35
2024/01/14 02:48:50;;;;;;;40.67;14.48;;;-3.20;99.90;;;-4.40;100.00;97143.28;4994891;28;20105;-35
2024/01/14 02:51:16;;;;;;;44.28;14.55;;;-3.20;99.90;;;-4.44;100.00;97129.50;4997724;28;20033;-35
2024/01/14 02:53:42;;;;;;;42.00;14.65;;;-3.20;99.90;;;-4.45;100.00;97129.47;4996121;28;20032;-35
2024/01/14 02:56:10;;;;;;;44.28;14.15;;;-3.20;99.90;;;-4.48;100.00;97132.00;4995059;28;20034;-35
2024/01/14 02:58:36;;;;;;;39.95;12.27;;;-3.20;99.90;;;-4.49;100.00;97138.84;4996082;28;20549;-34
2024/01/14 03:01:02;;;;;;;34.85;13.52;;;-3.30;99.90;;;-4.55;100.00;97128.44;4995854;28;20049;-36
2024/01/14 03:03:27;;;;;;;33.92;12.75;;;-3.30;99.90;;;-4.67;100.00;97099.91;4995178;28;20037;-36
2024/01/14 03:05:53;;;;;;;43.42;14.07;;;-3.30;99.90;;;-4.52;100.00;97120.78;4993419;28;20033;-35
2024/01/14 03:08:19;;;;;;;43.00;13.73;;;-3.30;99.90;;;-4.48;100.00;97120.00;4995869;28;20129;-35
2024/01/14 03:10:45;;;;;;;44.80;14.52;;;-3.30;99.90;;;-4.50;100.00;97123.41;4996955;28;20474;-35
2024/01/14 03:13:14;;;;;;;42.88;14.50;;;-3.30;99.90;;;-4.35;100.00;97130.50;4974767;28;20062;-35
2024/01/14 03:15:40;;;;;;;34.97;13.52;;;-3.20;99.90;;;-4.49;100.00;97125.97;4996234;28;20043;-36
2024/01/14 03:18:05;;;;;;;37.35;13.98;;;-3.20;99.90;;;-4.47;100.00;97119.16;4992465;28;20044;-35
2024/01/14 03:20:31;;;;;;;40.17;13.88;;;-3.20;99.90;;;-4.62;100.00;97098.28;4992976;28;21299;-36
2024/01/14 03:22:57;;;;;;;35.13;12.90;;;-3.30;99.90;;;-4.42;100.00;97121.81;4990774;28;20053;-36
2024/01/14 03:25:23;;;;;;;42.88;14.50;;;-3.30;99.90;;;-4.48;100.00;97129.44;4995832;28;20029;-36
2024/01/14 03:27:49;;;;;;;40.47;13.88;;;-3.20;99.90;;;-4.52;100.00;97132.78;4990137;28;20080;-35
2024/01/14 03:30:15;;;;;;;38.05;13.02;;;-3.30;99.90;;;-4.63;100.00;97136.03;4994585;28;20061;-36
2024/01/14 03:32:40;;;;;;;42.65;13.48;;;-3.30;99.90;;;-4.61;100.00;97129.22;4992315;28;20034;-36
2024/01/14 03:35:07;;;;;;;38.75;12.55;;;-3.40;99.90;;;-4.60;100.00;97138.66;4992923;28;20045;-36
2024/01/14 03:37:32;;;;;;;43.50;14.23;;;-3.40;99.90;;;-4.67;100.00;97139.38;4995907;28;20627;-36
2024/01/14 03:39:58;;;;;;;42.95;13.57;;;-3.40;99.90;;;-4.67;100.00;97126.50;4993694;28;20041;-36
2024/01/14 03:42:24;;;;;;;45.00;14.23;;;-3.40;99.90;;;-4.73;100.00;97126.41;4993197;28;20053;-35
2024/01/14 03:44:50;;;;;;;48.25;14.35;;;-3.50;99.90;;;-4.74;100.00;97128.94;4995066;28;20389;-35
2024/01/14 03:47:15;;;;;;;41.55;14.18;;;-3.50;99.90;;;-4.78;100.00;97124.59;4995260;28;20818;-35
2024/01/14 03:49:41;;;;;;;44.65;14.57;;;-3.50;99.90;;;-4.68;100.00;97127.38;4994976;28;20526;-35
2024/01/14 03:52:07;;;;;;;47.15;14.40;;;-3.50;99.90;;;-4.66;100.00;97127.41;4993254;28;20770;-35
2024/01/14 03:54:33;;;;;;;41.95;14.00;;;-3.50;99.90;;;-4.76;100.00;97120.34;4998911;28;20037;-35
2024/01/14 03:56:58;;;;;;;43.15;15.55;;;-3.50;99.90;;;-4.68;100.00;97118.78;4997008;28;20526;-34
2024/01/14 03:59:24;;;;;;;45.90;14.70;;;-3.50;99.90;;;-4.83;100.00;97094.50;4997399;28;20033;-35
2024/01/14 04:01:50;;;;;;;48.35;15.48;;;-3.50;99.90;;;-4.66;100.00;97115.38;4993135;28;20370;-35
2024/01/14 04:04:16;;;;;;;44.53;15.48;;;-3.40;99.90;;;-4.65;100.00;97122.28;4992554;28;20041;-35
2024/01/14 04:06:43;;;;;;;43.65;14.75;;;-3.40;99.90;;;-4.69;100.00;97125.63;4987986;28;20045;-35
2024/01/14 04:09:10;;;;;;;51.85;15.80;;;-3.50;99.90;;;-4.72;100.00;97124.69;4992660;28;20021;-35
2024/01/14 04:11:35;;;;;;;53.47;15.43;;;-3.50;99.90;;;-4.90;100.00;97120.97;4995936;28;20569;-35
2024/01/14 04:14:01;;;;;;;51.72;15.93;;;-3.50;99.90;;;-4.89;100.00;97120.09;4993879;28;20033;-36
2024/01/14 04:16:27;;;;;;;57.20;17.88;;;-3.60;99.90;;;-4.78;100.00;97129.75;4993954;28;20033;-35
2024/01/14 04:18:52;;;;;;;48.67;15.50;;;-3.50;99.90;;;-4.82;100.00;97129.66;4997501;28;20462;-35
2024/01/14 04:21:22;;;;;;;43.47;14.32;;;-3.60;99.90;;;-4.88;100.00;97134.72;4999416;28;20336;-35
2024/01/14 04:23:49;;;;;;;51.38;15.65;;;-3.60;99.90;;;-4.93;100.00;97136.31;4998509;28;20034;-35
2024/01/14 04:26:22;;;;;;;46.85;15.50;;;-3.60;99.90;;;-5.04;100.00;97135.25;4996485;28;20360;-35
2024/01/14 04:28:51;;;;;;;51.72;15.55;;;-3.70;99.90;;;-5.03;100.00;97137.84;4997219;28;20034;-35
2024/01/14 04:31:18;;;;;;;42.25;14.43;;;-3.70;99.90;;;-5.08;100.00;97136.00;4998508;28;20129;-35
2024/01/14 04:33:45;;;;;;;47.35;14.60;;;-3.80;99.90;;;-5.06;100.00;97127.50;4996074;28;20038;-35
2024/01/14 04:36:11;;;;;;;47.58;15.02;;;-3.80;99.90;;;-5.14;100.00;97131.63;4999711;28;20033;-35
2024/01/14 04:38:36;;;;;;;46.80;14.05;;;-3.80;99.90;;;-4.93;100.00;97135.47;4998394;28;20603;-35
2024/01/14 04:41:03;;;;;;;47.28;14.30;;;-3.80;99.90;;;-5.11;100.00;97136.81;4997942;28;20026;-35
2024/01/14 04:43:29;;;;;;;40.65;14.52;;;-3.80;99.90;;;-5.11;100.00;97133.41;4999026;28;20128;-35
2024/01/14 04:45:55;;;;;;;46.20;13.55;;;-3.80;99.90;;;-5.16;100.00;97130.72;4993753;28;20037;-35
2024/01/14 04:48:20;;;;;;;39.47;12.85;;;-3.80;99.90;;;-5.21;100.00;97130.63;4994856;28;20038;-35
2024/01/14 04:50:46;;;;;;;44.22;13.55;;;-3.90;99.90;;;-4.99;100.00;97137.06;4998081;28;20550;-35
2024/01/14 04:53:12;;;;;;;41.92;12.73;;;-3.80;99.90;;;-5.09;100.00;97134.28;4996219;28;20105;-35
2024/01/14 04:55:38;;;;;;;39.47;12.43;;;-3.80;99.90;;;-5.23;100.00;97136.56;4997757;28;20586;-35
2024/01/14 04:58:04;;;;;;;44.50;12.95;;;-3.90;99.90;;;-5.30;100.00;97138.13;4999826;28;20406;-35
2024/01/14 05:00:29;;;;;;;53.70;13.73;;;-3.90;99.90;;;-5.31;100.00;97133.84;4996450;28;20041;-35
2024/01/14 05:02:55;;;;;;;42.90;13.65;;;-4.00;99.90;;;-5.32;100.00;97129.53;4993603;28;20057;-36
2024/01/14 05:05:21;;;;;;;45.35;13.90;;;-4.00;99.90;;;-5.16;100.00;97138.44;4998521;28;20121;-36
2024/01/14 05:07:47;;;;;;;45.95;15.23;;;-3.90;99.90;;;-5.22;100.00;97126.31;4997441;28;20121;-36
2024/01/14 05:10:12;;;;;;;42.63;14.32;;;-3.90;99.90;;;-5.35;100.00;97124.31;4996693;28;20156;-36
2024/01/14 05:12:38;;;;;;;47.95;13.68;;;-3.90;99.90;;;-5.15;100.00;97137.63;4988544;28;20069;-35
2024/01/14 05:15:05;;;;;;;37.38;11.57;;;-3.90;99.90;;;-5.23;100.00;97122.00;4995432;28;20541;-35
2024/01/14 05:17:30;;;;;;;38.45;12.65;;;-3.90;99.90;;;-5.12;100.00;97144.50;4995210;28;20079;-36
2024/01/14 05:19:56;;;;;;;39.05;11.75;;;-3.90;99.90;;;-5.23;100.00;97134.00;4997107;28;20254;-36
2024/01/14 05:22:22;;;;;;;45.00;13.45;;;-3.90;99.90;;;-5.30;100.00;97137.28;5000830;28;20116;-36
2024/01/14 05:24:50;;;;;;;35.85;11.65;;;-3.90;99.90;;;-5.44;100.00;97139.56;4996948;28;20084;-35
2024/01/14 05:27:16;;;;;;;40.08;12.82;;;-4.00;99.90;;;-5.53;100.00;97129.06;4998204;28;20041;-36
2024/01/14 05:29:43;;;;;;;42.80;12.27;;;-4.10;99.90;;;-5.51;100.00;97132.53;4993766;28;20053;-36
2024/01/14 05:32:16;;;;;;;33.92;12.23;;;-4.20;99.90;;;-5.43;100.00;97128.44;4997432;28;20040;-36
2024/01/14 05:34:44;;;;;;;39.17;12.23;;;-4.20;99.90;;;-5.38;100.00;97129.41;4997876;28;20026;-36
2024/01/14 05:37:10;;;;;;;37.17;12.07;;;-4.10;99.90;;;-5.38;100.00;97139.69;4999608;28;20014;-35
2024/01/14 05:39:37;;;;;;;41.78;13.23;;;-4.10;99.90;;;-5.53;100.00;97134.22;4999292;28;20026;-36
2024/01/14 05:42:03;;;;;;;40.20;11.88;;;-4.20;99.90;;;-5.56;100.00;97129.88;5012290;28;20033;-36
2024/01/14 05:44:30;;;;;;;46.72;13.13;;;-4.20;99.90;;;-5.59;100.00;97130.69;5002344;28;20080;-35
2024/01/14 05:46:56;;;;;;;40.28;12.57;;;-4.20;99.90;;;-5.71;100.00;97107.28;4999352;28;20034;-36
2024/01/14 05:49:22;;;;;;;40.58;13.05;;;-4.20;99.90;;;-5.62;100.00;97127.16;4998942;28;21334;-36
2024/01/14 05:51:48;;;;;;;42.80;13.55;;;-4.30;99.90;;;-5.68;100.00;97107.34;4992978;28;20033;-35
2024/01/14 05:54:14;;;;;;;43.58;13.68;;;-4.30;99.90;;;-5.61;100.00;97122.06;4996743;28;20048;-35
2024/01/14 05:56:40;;;;;;;45.28;14.05;;;-4.30;99.90;;;-5.65;100.00;97116.81;4994677;28;20486;-35
2024/01/14 05:59:06;;;;;;;41.83;14.27;;;-4.30;99.90;;;-5.61;100.00;97113.50;4998319;28;20044;-35
2024/01/14 06:01:32;;;;;;;38.55;12.52;;;-4.20;99.90;;;-5.59;100.00;97117.81;4998743;28;20030;-35
2024/01/14 06:03:58;;;;;;;47.22;14.10;;;-4.30;99.90;;;-5.58;100.00;97110.97;4996834;28;20267;-34
2024/01/14 06:06:23;;;;;;;41.30;13.07;;;-4.20;99.90;;;-5.70;100.00;97092.75;4996861;28;20066;-33
2024/01/14 06:08:49;;;;;;;39.03;13.55;;;-4.20;99.90;;;-5.53;100.00;97101.66;5001168;28;20101;-34
2024/01/14 06:11:16;;;;;;;38.33;13.15;;;-4.20;99.90;;;-5.47;100.00;97100.94;5000491;28;20394;-36
2024/01/14 06:13:42;;;;;;;40.70;14.02;;;-4.20;99.90;;;-5.47;100.00;97104.38;5000311;28;20033;-34
2024/01/14 06:16:08;;;;;;;41.13;13.48;;;-4.10;99.90;;;-5.49;100.00;97100.91;5000583;28;20450;-35
2024/01/14 06:18:34;;;;;;;41.58;13.40;;;-4.10;99.90;;;-5.51;100.00;97101.72;4997234;28;20041;-35
2024/01/14 06:21:03;;;;;;;45.88;14.32;;;-4.10;99.90;;;-5.46;100.00;97112.97;4993966;28;20117;-35
2024/01/14 06:23:29;;;;;;;44.10;11.48;;;-4.10;99.90;;;-5.44;100.00;97108.72;4996268;28;20117;-35
2024/01/14 06:25:55;;;;;;;46.85;13.30;;;-4.10;99.90;;;-5.58;100.00;97091.31;4994499;28;20091;-34
2024/01/14 06:28:21;;;;;;;45.70;13.02;;;-4.10;99.90;;;-5.40;100.00;97101.09;4997459;28;20672;-35
2024/01/14 06:30:47;;;;;;;41.22;12.00;;;-4.10;99.90;;;-5.42;100.00;97104.47;4996345;28;20029;-35
2024/01/14 06:33:13;;;;;;;36.90;11.43;;;-4.10;99.90;;;-5.37;100.00;97105.44;4999493;28;20038;-34
2024/01/14 06:35:39;;;;;;;44.22;12.65;;;-4.10;99.90;;;-5.39;100.00;97107.09;4997232;28;20034;-35
2024/01/14 06:38:04;;;;;;;45.97;13.40;;;-4.10;99.90;;;-5.37;100.00;97096.00;5000165;28;20034;-34
2024/01/14 06:40:31;;;;;;;39.80;13.00;;;-4.00;99.90;;;-5.40;100.00;97095.97;4997216;28;20037;-35
2024/01/14 06:42:57;;;;;;;38.95;12.98;;;-4.10;99.90;;;-5.36;100.00;97086.63;4998188;28;20445;-35
2024/01/14 06:45:23;;;;;;;43.33;13.73;;;-4.10;99.90;;;-5.37;100.00;97085.72;4997386;28;20037;-34
2024/01/14 06:47:48;;;;;;;34.30;11.48;;;-4.00;99.90;;;-5.32;100.00;97080.69;4998121;28;20552;-35
2024/01/14 06:50:14;;;;;;;41.95;12.63;;;-4.00;99.90;;;-5.38;100.00;97073.72;4999138;28;20026;-35
2024/01/14 06:52:40;;;;;;;41.58;13.35;;;-4.00;99.90;;;-5.38;100.00;97066.03;4996525;28;20021;-35
2024/01/14 06:55:06;;;;;;;35.13;12.15;;;-4.00;99.90;;;-5.35;100.00;97066.91;5001367;28;20030;-35
2024/01/14 06:57:33;;;;;;;36.58;12.82;;;-4.10;99.90;;;-5.38;100.00;97070.31;4995939;28;20033;-35
2024/01/14 07:00:00;;;;;;;34.35;12.68;;;-4.10;99.90;;;-5.32;100.00;97056.69;4993387;28;20495;-36
2024/01/14 07:02:26;;;;;;;40.03;12.93;;;-4.00;99.90;;;-5.30;100.00;97037.03;4993377;28;20534;-35
2024/01/14 07:04:52;;;;;;;44.53;14.10;;;-4.00;99.90;;;-5.33;100.00;97036.97;4999053;28;20026;-35
2024/01/14 07:07:18;;;;;;;36.15;11.57;;;-4.00;99.90;;;-5.34;100.00;97033.53;4996290;28;20053;-35
2024/01/14 07:09:44;;;;;;;41.20;13.10;;;-4.10;99.90;;;-5.56;100.00;97002.28;4993254;28;20037;-35
2024/01/14 07:12:09;;;;;;;43.13;14.35;;;-4.10;99.90;;;-5.43;100.00;97023.06;4996088;28;20018;-34
2024/01/14 07:14:35;;;;;;;44.72;13.02;;;-4.10;99.90;;;-5.45;100.00;97019.63;4996664;28;20123;-35
2024/01/14 07:17:01;;;;;;;41.78;13.68;;;-4.20;99.90;;;-5.45;100.00;97019.63;4996449;28;20041;-35
2024/01/14 07:19:27;;;;;;;38.00;12.77;;;-4.20;99.90;;;-5.44;100.00;97013.63;4998353;28;20036;-35
2024/01/14 07:21:52;;;;;;;43.50;13.43;;;-4.20;99.90;;;-5.44;100.00;97017.03;4991745;28;20462;-35
2024/01/14 07:24:18;;;;;;;37.75;12.57;;;-4.20;99.90;;;-5.44;100.00;97008.47;4993595;28;20030;-35
2024/01/14 07:26:44;;;;;;;46.70;13.80;;;-4.20;99.90;;;-5.45;100.00;97011.91;4993892;28;20387;-35
2024/01/14 07:29:09;;;;;;;39.70;12.40;;;-4.20;99.90;;;-5.47;100.00;97008.41;4991789;28;20026;-35
2024/01/14 07:31:35;;;;;;;43.35;13.13;;;-4.20;99.90;;;-5.52;100.00;97015.19;4989035;28;20030;-34
2024/01/14 07:34:01;;;;;;;48.70;15.20;;;-4.20;99.90;;;-5.57;100.00;97015.94;4995014;28;20041;-35
2024/01/14 07:36:27;;;;;;;45.40;14.02;;;-4.20;99.90;;;-5.60;100.00;97012.44;4992513;28;20074;-34
2024/01/14 07:38:54;;;;;;;45.42;13.65;;;-4.30;99.90;;;-5.57;100.00;97008.22;4996393;28;20036;-35
2024/01/14 07:41:19;;;;;;;39.25;13.43;;;-4.30;99.90;;;-5.58;100.00;97014.22;4996749;28;20064;-35
2024/01/14 07:43:46;;;;;;;41.05;12.88;;;-4.30;99.90;;;-5.69;100.00;96979.72;4995305;28;20042;-35
2024/01/14 07:46:11;;;;;;;43.22;14.00;;;-4.30;99.90;;;-5.50;100.00;97001.53;4993311;28;20038;-35
2024/01/14 07:48:37;;;;;;;47.63;13.48;;;-4.20;99.90;;;-5.47;100.00;96993.88;4995518;28;20033;-35
2024/01/14 07:51:03;;;;;;;48.97;14.63;;;-4.20;99.90;;;-5.43;100.00;97005.09;4996708;28;20025;-35
2024/01/14 07:53:30;;;;;;;47.50;14.43;;;-4.20;99.90;;;-5.38;100.00;96996.63;4998404;28;20501;-35
2024/01/14 07:55:56;;;;;;;44.35;13.82;;;-4.10;99.90;;;-5.29;100.00;96993.38;5000199;28;20038;-36
2024/01/14 07:58:22;;;;;;;42.75;14.38;;;-4.10;99.90;;;-5.23;100.00;96984.91;5003008;28;20103;-36
2024/01/14 08:00:47;;;;;;;47.30;14.93;;;-4.00;99.90;;;-5.22;100.00;96981.50;4999534;28;20517;-35
2024/01/14 08:03:13;;;;;;;49.67;15.63;;;-3.90;99.90;;;-5.08;100.00;96992.91;5001793;28;20099;-36
2024/01/14 08:05:39;;;;;;;50.63;13.55;;;-3.80;99.90;;;-4.99;100.00;96989.59;4996007;28;20113;-35
2024/01/14 08:08:05;;;;;;;50.92;15.63;;;-3.80;99.90;;;-4.95;100.00;96986.25;5003371;28;20677;-35
2024/01/14 08:10:32;;;;;;;47.55;14.55;;;-3.70;99.90;;;-4.95;100.00;96985.38;4999292;28;20156;-36
2024/01/14 08:12:58;;;;;;;42.38;15.38;;;-3.70;99.90;;;-4.95;100.00;96980.22;5001308;28;20131;-37
2024/01/14 08:15:24;;;;;;;44.95;14.77;;;-3.70;99.90;;;-5.03;100.00;96975.81;5000656;28;21485;-35
2024/01/14 08:17:50;;;;;;;48.70;14.32;;;-3.70;99.90;;;-4.99;100.00;96987.91;5001112;28;20261;-35
2024/01/14 08:20:16;;;;;;;45.08;14.15;;;-3.80;99.90;;;-5.02;100.00;96975.00;5000838;28;20587;-35
2024/01/14 08:22:41;;;;;;;44.50;13.38;;;-3.80;99.90;;;-5.04;100.00;96980.97;4998838;28;20095;-35
2024/01/14 08:25:08;;;;;;;43.22;13.18;;;-3.80;99.90;;;-5.12;100.00;96975.66;4998925;28;20018;-35
2024/01/14 08:27:34;;;;;;;42.20;13.73;;;-3.80;99.90;;;-5.06;100.00;96972.31;4999546;28;20166;-35
2024/01/14 08:30:00;;;;;;;35.20;12.77;;;-3.80;99.90;;;-5.04;100.00;96975.81;5000611;28;20531;-35
2024/01/14 08:32:27;;;;;;;38.40;12.65;;;-3.80;99.90;;;-5.07;100.00;96955.19;5000794;28;20021;-35
2024/01/14 08:34:52;;;;;;;40.92;15.02;;;-3.80;99.90;;;-4.96;100.00;96966.50;4997767;28;20034;-35
2024/01/14 08:37:18;;;;;;;37.85;12.98;;;-3.70;99.90;;;-4.90;100.00;96966.63;4999908;28;20034;-35
2024/01/14 08:39:44;;;;;;;46.92;15.10;;;-3.70;99.90;;;-4.92;100.00;96962.28;4998597;28;20065;-35
2024/01/14 08:42:09;;;;;;;39.03;13.57;;;-3.70;99.90;;;-4.89;100.00;96965.75;4997515;28;20021;-34
2024/01/14 08:44:35;;;;;;;36.33;13.15;;;-3.60;99.90;;;-4.86;100.00;96960.69;4996593;28;20273;-35
2024/01/14 08:47:01;;;;;;;40.80;15.10;;;-3.60;99.90;;;-4.82;100.00;96956.44;4999826;28;20437;-35
2024/01/14 08:49:29;;;;;;;44.30;15.65;;;-3.60;99.90;;;-4.81;100.00;96942.72;5000988;28;20037;-35
2024/01/14 08:51:56;;;;;;;55.67;16.85;;;-3.50;99.90;;;-4.81;100.00;96935.91;4991446;28;20080;-35
2024/01/14 08:54:24;;;;;;;45.70;13.88;;;-3.50;99.90;;;-4.68;100.00;96956.69;4997247;28;20073;-35
2024/01/14 08:56:50;;;;;;;42.47;13.85;;;-3.40;99.90;;;-4.57;100.00;96954.28;4996594;28;20036;-35
2024/01/14 08:59:16;;;;;;;37.38;13.25;;;-3.40;99.90;;;-4.47;100.00;96946.72;4992497;28;20038;-34
2024/01/14 09:01:41;;;;;;;37.72;12.95;;;-3.30;99.90;;;-4.41;100.00;96948.50;4986808;28;20751;-35
2024/01/14 09:04:07;;;;;;;34.83;13.45;;;-3.20;99.90;;;-4.38;100.00;96948.53;4984026;28;20427;-34
2024/01/14 09:06:38;;;;;;;40.10;15.35;;;-3.10;99.90;;;-4.33;100.00;96944.31;4982427;28;20046;-34
2024/01/14 09:09:04;;;;;;;39.17;14.48;;;-3.10;99.90;;;-4.30;100.00;96943.50;4995376;28;20026;-34
2024/01/14 09:11:31;;;;;;;38.00;14.85;;;-3.10;99.90;;;-4.29;100.00;96945.22;4990187;28;20045;-34
2024/01/14 09:13:56;;;;;;;37.00;12.65;;;-3.10;99.90;;;-4.28;100.00;96941.81;4995000;28;20040;-34
2024/01/14 09:16:22;;;;;;;44.72;14.57;;;-3.00;99.90;;;-4.27;100.00;96940.94;4984468;28;26073;-34
2024/01/14 09:18:48;;;;;;;40.63;13.98;;;-3.00;99.90;;;-4.33;100.00;96920.28;4989180;28;20084;-34
2024/01/14 09:21:13;;;;;;;34.92;14.75;;;-3.00;99.90;;;-4.23;100.00;96932.44;4992341;28;20148;-34
2024/01/14 09:23:39;;;;;;;41.80;14.02;;;-3.00;99.90;;;-4.19;100.00;96930.78;4991407;28;20486;-35
2024/01/14 09:26:05;;;;;;;34.17;13.32;;;-3.00;99.90;;;-4.19;100.00;96934.22;4994408;28;20046;-35
2024/01/14 09:28:33;;;;;;;43.60;14.38;;;-3.00;99.90;;;-4.17;100.00;96926.50;4987527;28;20030;-35
2024/01/14 09:30:58;;;;;;;39.30;13.50;;;-2.90;99.90;;;-4.16;100.00;96934.25;4993603;28;20022;-37
2024/01/14 09:33:24;;;;;;;39.70;12.75;;;-2.90;99.90;;;-4.18;100.00;96912.78;4987442;28;20033;-36
2024/01/14 09:35:50;;;;;;;41.22;14.98;;;-2.90;99.90;;;-4.07;100.00;96924.06;4989982;28;20065;-35
2024/01/14 09:38:16;;;;;;;41.53;14.82;;;-2.80;99.90;;;-3.91;100.00;96927.72;4973755;28;20124;-35
2024/01/14 09:40:42;;;;;;;39.13;14.82;;;-2.80;99.90;;;-3.92;100.00;96917.38;4993263;28;20033;-35
2024/01/14 09:43:11;;;;;;;33.20;13.18;;;-2.70;99.90;;;-3.85;100.00;96930.34;4993316;28;20376;-35
2024/01/14 09:45:40;;;;;;;37.03;13.95;;;-2.70;99.90;;;-3.79;100.00;96926.13;4993964;28;20030;-35
2024/01/14 09:48:08;;;;;;;41.30;14.98;;;-2.60;99.90;;;-3.94;100.00;96913.94;4997163;28;20732;-35
2024/01/14 09:50:35;;;;;;;39.35;14.90;;;-2.70;99.90;;;-3.91;100.00;96916.53;4996961;28;20026;-35
2024/01/14 09:53:04;;;;;;;38.58;14.40;;;-2.70;99.90;;;-3.86;100.00;96918.34;4993026;28;20048;-36
2024/01/14 09:55:30;;;;;;;39.38;13.90;;;-2.70;99.90;;;-3.82;100.00;96916.66;4993802;28;20026;-36